Campanya meteocatpedra

Dades de l'estació automàtica Os de Balaguer - el Monestir d'Avellanes

?
?
Resum diari 23:00 TU
Dades diàries de l'estació meteorològica
Temperatura mitjana 10.9 °C
Temperatura màxima 16.5 °C 13:10 TU
Temperatura mínima 8.5 °C 5:49 TU
Humitat relativa mitjana 93%
Precipitació acumulada 0.2 mm
Ratxa màxima del vent (6 m) 12.2 km/h - 192º 12:51 TU
Irradiació solar global 10.5 MJ/m2

El tram horari està expressat en Temps Universal (TU). Cal sumar una hora en horari d'hivern i dues en horari d'estiu per passar a l'hora oficial.

Os de Balaguer - el Monestir d'Avellanes

Metadades estació meteorol´gica
Municipi Os de Balaguer
Comarca Noguera
Altitud 576 m
Data alta 07.07.1995
Estat actual Operativa
Dades de període
Període
TU
TM
°C
TX
°C
TN
°C
HRM
%
PPT
mm
VVM (6 m)
km/h
DVM (6 m)
graus
VVX (6 m)
km/h
RS
W/m2
00:00 - 00:30 9.8 10.4 9.4 99 0.0 1.1 335 4.7 0
00:30 - 01:00 10.2 10.5 9.9 99 0.0 2.5 89 7.2 0
01:00 - 01:30 9.5 9.8 8.9 99 0.0 1.1 80 3.6 0
01:30 - 02:00 9.0 9.5 8.7 99 0.0 2.2 33 6.1 0
02:00 - 02:30 9.0 9.5 8.7 99 0.0 1.4 128 7.6 0
02:30 - 03:00 8.9 9.3 8.7 99 0.0 0.7 213 5.8 0
03:00 - 03:30 9.2 9.3 9.2 99 0.0 0.7 118 3.2 0
03:30 - 04:00 9.2 9.3 9.2 99 0.0 0.0 187 2.2 0
04:00 - 04:30 9.2 9.4 9.0 99 0.0 0.7 185 3.6 0
04:30 - 05:00 9.0 9.1 8.9 99 0.0 0.7 153 3.6 0
05:00 - 05:30 8.7 9.0 8.6 99 0.0 0.7 170 4.0 0
05:30 - 06:00 8.6 8.6 8.5 99 0.1 0.7 236 3.6 5
06:00 - 06:30 8.7 8.8 8.6 99 0.0 0.4 102 2.2 7
06:30 - 07:00 8.8 9.0 8.7 99 0.0 0.4 231 2.9 17
07:00 - 07:30 9.1 9.3 9.0 99 0.1 0.4 335 2.9 38
07:30 - 08:00 9.4 9.7 9.3 99 0.0 1.8 111 5.4 64
08:00 - 08:30 9.5 9.7 9.3 99 0.0 2.5 110 6.1 104
08:30 - 09:00 9.6 9.7 9.5 99 0.0 1.8 121 6.5 131
09:00 - 09:30 9.7 9.9 9.5 99 0.0 2.5 111 9.0 163
09:30 - 10:00 9.9 10.2 9.6 99 0.0 1.8 119 6.5 176
10:00 - 10:30 10.5 10.9 10.1 97 0.0 2.2 117 6.8 222
10:30 - 11:00 11.1 13.0 10.6 94 0.0 1.8 104 6.1 388
11:00 - 11:30 12.3 13.2 11.8 87 0.0 3.2 27 7.6 364
11:30 - 12:00 13.0 14.2 12.4 84 0.0 3.2 5 9.0 456
12:00 - 12:30 14.5 15.3 14.0 79 0.0 4.0 14 9.7 594
12:30 - 13:00 15.8 16.3 14.9 73 0.0 3.2 211 12.2 638
13:00 - 13:30 16.2 16.5 15.8 69 0.0 4.0 228 10.8 555
13:30 - 14:00 16.2 16.4 15.8 69 0.0 3.2 220 10.4 501
14:00 - 14:30 16.3 16.5 16.1 69 0.0 4.3 240 11.5 433
14:30 - 15:00 15.9 16.1 15.7 71 0.0 4.0 214 11.2 353
15:00 - 15:30 15.8 16.1 15.6 73 0.0 4.0 226 11.5 265
15:30 - 16:00 15.5 15.7 15.3 75 0.0 2.5 239 9.0 174
16:00 - 16:30 14.8 15.2 14.0 79 0.0 2.2 236 10.1 95
16:30 - 17:00 13.3 14.0 12.2 86 0.0 0.7 237 6.5 31
17:00 - 17:30 11.6 12.2 11.1 93 0.0 1.1 214 5.0 4
17:30 - 18:00 10.6 11.1 10.3 95 0.0 1.1 190 3.2 2
18:00 - 18:30 10.1 10.4 9.8 97 0.0 0.4 65 1.8 3
18:30 - 19:00 10.0 10.3 9.5 98 0.0 2.2 37 4.3 3
19:00 - 19:30 9.8 10.3 9.6 97 0.0 1.8 63 5.4 3
19:30 - 20:00 9.6 9.8 9.3 98 0.0 1.4 331 4.3 3
20:00 - 20:30 9.6 10.1 9.3 99 0.0 2.2 15 5.0 3
20:30 - 21:00 9.5 10.1 9.2 98 0.0 2.2 27 5.0 3
21:00 - 21:30 9.7 10.1 9.5 98 0.0 3.2 25 6.5 3
21:30 - 22:00 9.7 10.0 9.5 98 0.0 2.2 95 6.1 3
22:00 - 22:30 9.4 9.7 8.9 99 0.0 1.1 77 3.6 3
22:30 - 23:00 8.8 9.0 8.6 99 0.0 1.8 321 5.0 3
23:00 - 23:30 9.0 9.2 8.7 99 0.0 2.5 21 5.8 3

Les dades en taronja només han passat un control de qualitat automàtic. Resta pendent la seva validació definitiva.